createdAt,value
2023-05-03T00:00:17.259Z,19.11
2023-05-03T00:02:45.180Z,19.03
2023-05-03T00:05:13.538Z,19.12
2023-05-03T00:07:43.291Z,19.07
2023-05-03T00:10:13.239Z,19.00
2023-05-03T00:12:41.301Z,19.02
2023-05-03T00:15:09.821Z,18.97
2023-05-03T00:17:38.118Z,18.98
2023-05-03T00:20:06.485Z,18.82
2023-05-03T00:22:34.509Z,18.87
2023-05-03T00:25:02.700Z,18.98
2023-05-03T00:27:30.952Z,19.07
2023-05-03T00:29:58.482Z,19.03
2023-05-03T00:32:26.486Z,19.14
2023-05-03T00:34:57.554Z,19.12
2023-05-03T00:37:25.235Z,19.09
2023-05-03T00:39:53.285Z,19.04
2023-05-03T00:42:20.750Z,19.04
2023-05-03T00:44:48.157Z,18.98
2023-05-03T00:47:16.285Z,19.07
2023-05-03T00:49:44.628Z,19.11
2023-05-03T00:52:12.067Z,19.12
2023-05-03T00:54:39.989Z,19.15
2023-05-03T00:57:07.579Z,19.08
2023-05-03T00:59:34.953Z,18.99
2023-05-03T01:02:02.731Z,19.04
2023-05-03T01:04:30.603Z,19.10
2023-05-03T01:07:04.172Z,19.06
2023-05-03T01:09:41.225Z,18.92
2023-05-03T01:12:12.031Z,18.98
2023-05-03T01:15:22.772Z,19.09
2023-05-03T01:17:51.881Z,18.99
2023-05-03T01:20:24.924Z,19.03
2023-05-03T01:23:00.786Z,19.05
2023-05-03T01:25:28.519Z,19.08
2023-05-03T01:27:55.912Z,19.08
2023-05-03T01:30:27.207Z,19.11
2023-05-03T01:33:07.674Z,19.08
2023-05-03T01:35:45.661Z,19.16
2023-05-03T01:38:13.767Z,19.08
2023-05-03T01:40:45.620Z,19.02
2023-05-03T01:43:15.920Z,19.14
2023-05-03T01:45:43.814Z,19.21
2023-05-03T01:48:14.560Z,19.26
2023-05-03T01:50:42.368Z,19.22
2023-05-03T01:53:09.727Z,19.23
2023-05-03T01:55:37.155Z,18.94
2023-05-03T01:58:04.926Z,19.02
2023-05-03T02:00:32.866Z,19.12
2023-05-03T02:03:00.706Z,19.11
2023-05-03T02:05:28.159Z,19.14
2023-05-03T02:07:55.553Z,19.09
2023-05-03T02:10:23.266Z,19.14
2023-05-03T02:12:50.702Z,19.12
2023-05-03T02:15:20.244Z,19.06
2023-05-03T02:17:49.542Z,19.06
2023-05-03T02:20:17.426Z,19.02
2023-05-03T02:22:44.875Z,19.07
2023-05-03T02:25:12.543Z,19.14
2023-05-03T02:27:40.233Z,19.18
2023-05-03T02:30:08.244Z,19.24
2023-05-03T02:32:38.337Z,19.27
2023-05-03T02:35:07.398Z,19.29
2023-05-03T02:37:35.767Z,19.33
2023-05-03T02:40:06.152Z,19.28
2023-05-03T02:42:33.692Z,19.31
2023-05-03T02:45:01.535Z,19.24
2023-05-03T02:47:30.359Z,19.25
2023-05-03T02:49:57.799Z,19.12
2023-05-03T02:52:25.404Z,19.11
2023-05-03T02:54:53.116Z,18.97
2023-05-03T02:57:20.565Z,19.04
2023-05-03T02:59:48.029Z,19.03
2023-05-03T03:02:15.707Z,19.05
2023-05-03T03:04:43.119Z,19.14
2023-05-03T03:07:10.704Z,19.14
2023-05-03T03:09:38.643Z,19.09
2023-05-03T03:12:06.295Z,18.84
2023-05-03T03:14:34.236Z,18.97
2023-05-03T03:17:05.003Z,19.04
2023-05-03T03:19:32.572Z,19.09
2023-05-03T03:21:59.996Z,19.11
2023-05-03T03:24:27.689Z,18.98
2023-05-03T03:26:55.090Z,19.05
2023-05-03T03:29:22.596Z,19.11
2023-05-03T03:31:50.788Z,19.16
2023-05-03T03:34:18.862Z,19.18
2023-05-03T03:36:46.314Z,19.16
2023-05-03T03:39:14.725Z,19.14
2023-05-03T03:41:45.098Z,19.27
2023-05-03T03:44:12.574Z,19.32
2023-05-03T03:46:40.852Z,19.30
2023-05-03T03:49:08.818Z,19.33
2023-05-03T03:51:36.656Z,19.13
2023-05-03T03:54:04.879Z,19.17
2023-05-03T03:56:33.525Z,19.18
2023-05-03T03:59:01.093Z,19.11
2023-05-03T04:01:28.789Z,19.21
2023-05-03T04:03:56.580Z,19.26
2023-05-03T04:06:24.294Z,18.70
2023-05-03T04:08:52.170Z,18.89
2023-05-03T04:11:21.539Z,19.11
2023-05-03T04:13:49.521Z,19.14
2023-05-03T04:16:17.245Z,19.16
2023-05-03T04:18:45.482Z,19.11
2023-05-03T04:21:12.892Z,19.12
2023-05-03T04:23:41.228Z,19.09
2023-05-03T04:26:17.022Z,19.05
2023-05-03T04:28:52.007Z,19.05
2023-05-03T04:31:21.165Z,19.17
2023-05-03T04:33:49.212Z,19.13
2023-05-03T04:36:16.885Z,19.15
2023-05-03T04:38:45.086Z,19.20
2023-05-03T04:41:14.144Z,19.22
2023-05-03T04:43:43.665Z,19.24
2023-05-03T04:46:11.742Z,19.23
2023-05-03T04:48:39.231Z,19.12
2023-05-03T04:51:06.681Z,19.18
2023-05-03T04:53:34.615Z,19.14
2023-05-03T04:56:02.396Z,19.20
2023-05-03T04:58:31.378Z,19.16
2023-05-03T05:00:59.404Z,19.43
2023-05-03T05:03:27.869Z,19.36
2023-05-03T05:05:55.781Z,19.33
2023-05-03T05:08:23.903Z,19.29
2023-05-03T05:10:51.595Z,19.16
2023-05-03T05:13:19.586Z,19.28
2023-05-03T05:15:47.269Z,19.47
2023-05-03T05:18:14.685Z,19.49
2023-05-03T05:20:42.390Z,19.50
2023-05-03T05:23:10.748Z,19.47
2023-05-03T05:25:38.303Z,19.58
2023-05-03T05:28:06.188Z,19.66
2023-05-03T05:30:35.121Z,19.74
2023-05-03T05:33:03.605Z,19.57
2023-05-03T05:35:32.477Z,19.71
2023-05-03T05:38:00.468Z,19.86
2023-05-03T05:40:29.574Z,19.67
2023-05-03T05:42:57.491Z,19.84
2023-05-03T05:45:25.911Z,19.73
2023-05-03T05:47:53.594Z,19.78
2023-05-03T05:50:21.399Z,19.86
2023-05-03T05:52:53.131Z,19.88
2023-05-03T05:55:21.289Z,19.72
2023-05-03T05:57:50.003Z,19.63
2023-05-03T06:00:19.293Z,19.54
2023-05-03T06:02:47.672Z,19.50
2023-05-03T06:05:15.889Z,19.61
2023-05-03T06:07:43.350Z,19.47
2023-05-03T06:10:11.373Z,19.64
2023-05-03T06:12:39.288Z,19.62
2023-05-03T06:15:07.819Z,19.65
2023-05-03T06:17:36.184Z,19.41
2023-05-03T06:20:04.830Z,19.47
2023-05-03T06:22:32.600Z,19.69
2023-05-03T06:25:00.469Z,19.87
2023-05-03T06:27:28.007Z,19.73
2023-05-03T06:29:56.058Z,19.83
2023-05-03T06:32:23.915Z,19.54
2023-05-03T06:34:52.370Z,19.65
2023-05-03T06:37:19.711Z,19.99
2023-05-03T06:39:47.393Z,19.89
2023-05-03T06:42:14.833Z,19.91
2023-05-03T06:44:43.102Z,19.61
2023-05-03T06:47:10.934Z,19.69
2023-05-03T06:49:38.342Z,19.84
2023-05-03T06:52:08.186Z,19.92
2023-05-03T06:54:37.203Z,20.13
2023-05-03T06:57:05.319Z,20.17
2023-05-03T06:59:32.712Z,20.28
2023-05-03T07:02:00.488Z,20.10
2023-05-03T07:04:28.175Z,20.40
2023-05-03T07:06:56.828Z,20.32
2023-05-03T07:09:41.494Z,20.33
2023-05-03T07:12:10.522Z,20.25
2023-05-03T07:14:39.803Z,20.31
2023-05-03T07:17:07.500Z,20.14
2023-05-03T07:19:35.119Z,20.35
2023-05-03T07:22:03.571Z,20.25
2023-05-03T07:24:30.974Z,20.01
2023-05-03T07:26:58.535Z,19.80
2023-05-03T07:29:27.478Z,20.13
2023-05-03T07:31:55.075Z,20.24
2023-05-03T07:34:23.124Z,20.40
2023-05-03T07:36:52.000Z,20.51
2023-05-03T07:39:20.044Z,20.59
2023-05-03T07:41:47.414Z,20.75
2023-05-03T07:44:15.097Z,21.09
2023-05-03T07:46:42.460Z,20.87
2023-05-03T07:49:09.927Z,20.12
2023-05-03T07:51:38.706Z,20.64
2023-05-03T07:54:06.833Z,21.10
2023-05-03T07:56:34.395Z,20.69
2023-05-03T08:01:32.379Z,20.84
2023-05-03T08:04:00.232Z,20.50
2023-05-03T08:06:28.278Z,21.32
2023-05-03T08:08:55.826Z,21.33
2023-05-03T08:11:23.490Z,21.04
2023-05-03T08:13:50.955Z,21.14
2023-05-03T08:16:18.396Z,21.34
2023-05-03T08:18:47.032Z,21.16
2023-05-03T08:21:15.089Z,21.30
2023-05-03T08:23:43.124Z,21.39
2023-05-03T08:26:11.015Z,21.69
2023-05-03T08:28:38.411Z,21.86
2023-05-03T08:31:06.702Z,21.21
2023-05-03T08:33:34.477Z,22.00
2023-05-03T08:36:02.131Z,22.05
2023-05-03T08:38:29.778Z,21.23
2023-05-03T08:40:59.817Z,21.71
2023-05-03T08:43:28.904Z,22.40
2023-05-03T08:45:56.728Z,22.62
2023-05-03T08:48:24.109Z,22.34
2023-05-03T08:50:52.839Z,21.58
2023-05-03T08:53:20.890Z,22.24
2023-05-03T08:55:48.320Z,21.97
2023-05-03T08:58:15.873Z,22.24
2023-05-03T09:00:45.204Z,22.72
2023-05-03T09:03:13.251Z,22.50
2023-05-03T09:05:44.146Z,22.00
2023-05-03T09:08:13.118Z,21.86
2023-05-03T09:10:42.166Z,21.78
2023-05-03T09:13:10.687Z,21.72
2023-05-03T09:15:38.703Z,21.89
2023-05-03T09:18:21.304Z,21.87
2023-05-03T09:20:52.816Z,21.94
2023-05-03T09:23:26.211Z,21.98
2023-05-03T09:25:54.759Z,21.90
2023-05-03T09:28:22.374Z,21.84
2023-05-03T09:30:50.611Z,21.61
2023-05-03T09:33:29.199Z,21.61
2023-05-03T09:36:02.943Z,21.37
2023-05-03T09:38:32.515Z,20.97
2023-05-03T09:41:01.376Z,21.07
2023-05-03T09:43:29.369Z,21.08
2023-05-03T09:46:13.614Z,21.73
2023-05-03T09:48:41.328Z,21.17
2023-05-03T09:51:11.495Z,21.90
2023-05-03T09:53:40.581Z,21.69
2023-05-03T09:56:13.241Z,21.38
2023-05-03T09:58:42.319Z,21.67
2023-05-03T10:01:10.413Z,22.18
2023-05-03T10:03:41.591Z,22.04
2023-05-03T10:06:26.798Z,22.28
2023-05-03T10:09:12.231Z,22.45
2023-05-03T10:11:40.601Z,22.52
2023-05-03T10:14:08.665Z,22.54
2023-05-03T10:16:38.750Z,22.29
2023-05-03T10:19:26.157Z,22.52
2023-05-03T10:21:59.518Z,22.10
2023-05-03T10:24:27.262Z,21.79
2023-05-03T10:26:57.410Z,22.17
2023-05-03T10:29:48.103Z,21.96
2023-05-03T10:32:28.949Z,21.77
2023-05-03T10:35:10.338Z,22.04
2023-05-03T10:37:40.494Z,21.48
2023-05-03T10:40:12.485Z,21.50
2023-05-03T10:43:04.410Z,21.80
2023-05-03T10:45:33.291Z,21.97
2023-05-03T10:48:13.026Z,21.81
2023-05-03T10:50:41.786Z,22.06
2023-05-03T10:53:38.397Z,21.42
2023-05-03T10:56:08.399Z,22.07
2023-05-03T10:58:56.610Z,21.95
2023-05-03T11:01:25.231Z,21.58
2023-05-03T11:04:04.149Z,22.17
2023-05-03T11:06:34.471Z,21.94
2023-05-03T11:09:04.667Z,22.14
2023-05-03T11:11:32.696Z,21.90
2023-05-03T11:14:00.187Z,22.05
2023-05-03T11:16:28.603Z,22.19
2023-05-03T11:18:56.365Z,22.02
2023-05-03T11:21:23.887Z,22.41
2023-05-03T11:23:51.560Z,22.67
2023-05-03T11:26:21.198Z,22.46
2023-05-03T11:28:48.562Z,22.51
2023-05-03T11:31:16.315Z,22.27
2023-05-03T11:33:44.609Z,22.13
2023-05-03T11:36:14.925Z,22.39
2023-05-03T11:38:42.594Z,22.28
2023-05-03T11:41:18.119Z,22.00
2023-05-03T11:43:49.483Z,21.92
2023-05-03T11:46:23.308Z,21.35
2023-05-03T11:48:51.030Z,21.74
2023-05-03T11:51:23.000Z,21.24
2023-05-03T11:53:51.694Z,21.11
2023-05-03T11:56:20.695Z,21.25
2023-05-03T11:58:58.548Z,21.10
2023-05-03T12:01:29.881Z,21.17
2023-05-03T12:04:00.155Z,20.44
2023-05-03T12:06:32.198Z,20.51
2023-05-03T12:09:01.723Z,20.90
2023-05-03T12:11:32.060Z,20.92
2023-05-03T12:14:02.421Z,20.74
2023-05-03T12:16:47.099Z,20.78
2023-05-03T12:19:26.901Z,20.68
2023-05-03T12:22:13.454Z,20.44
2023-05-03T12:24:45.111Z,20.46
2023-05-03T12:27:14.269Z,20.40
2023-05-03T12:29:42.176Z,19.95
2023-05-03T12:32:12.097Z,20.28
2023-05-03T12:34:41.501Z,19.82
2023-05-03T12:37:11.762Z,19.72
2023-05-03T12:39:40.790Z,20.48
2023-05-03T12:42:09.547Z,20.80
2023-05-03T12:44:42.261Z,20.53
2023-05-03T12:47:11.246Z,20.68
2023-05-03T12:49:39.988Z,20.76
2023-05-03T12:54:41.561Z,21.13
2023-05-03T12:57:15.692Z,20.75
2023-05-03T12:59:51.347Z,20.75
2023-05-03T13:04:59.047Z,20.80
2023-05-03T13:07:43.138Z,20.19
2023-05-03T13:12:46.541Z,20.67
2023-05-03T13:15:14.385Z,20.82
2023-05-03T13:17:43.020Z,20.49
2023-05-03T13:20:12.295Z,20.72
2023-05-03T13:22:39.983Z,20.44
2023-05-03T13:25:08.294Z,20.66
2023-05-03T13:27:35.809Z,20.57
2023-05-03T13:30:05.054Z,20.71
2023-05-03T13:32:33.374Z,20.44
2023-05-03T13:35:01.192Z,20.81
2023-05-03T13:37:28.899Z,20.64
2023-05-03T13:39:56.533Z,20.55
2023-05-03T13:42:24.016Z,20.82
2023-05-03T13:44:51.865Z,20.58
2023-05-03T13:47:19.409Z,20.48
2023-05-03T13:49:46.884Z,21.01
2023-05-03T13:52:14.875Z,20.44
2023-05-03T13:54:42.485Z,19.97
2023-05-03T13:57:09.932Z,20.67
2023-05-03T13:59:37.610Z,20.76
2023-05-03T14:02:05.119Z,20.27
2023-05-03T14:04:32.912Z,20.18
2023-05-03T14:07:03.175Z,20.37
2023-05-03T14:09:30.810Z,20.10
2023-05-03T14:11:58.501Z,20.65
2023-05-03T14:14:28.858Z,20.25
2023-05-03T14:16:56.550Z,20.61
2023-05-03T14:19:24.531Z,20.50
2023-05-03T14:21:59.104Z,20.36
2023-05-03T14:24:27.052Z,20.43
2023-05-03T14:26:54.489Z,20.73
2023-05-03T14:29:22.095Z,20.58
2023-05-03T14:31:49.799Z,21.14
2023-05-03T14:34:17.442Z,20.79
2023-05-03T14:36:44.899Z,20.22
2023-05-03T14:39:14.677Z,20.14
2023-05-03T14:41:44.046Z,20.35
2023-05-03T14:44:11.560Z,20.44
2023-05-03T14:46:39.800Z,20.64
2023-05-03T14:49:07.316Z,20.83
2023-05-03T14:51:35.096Z,20.78
2023-05-03T14:54:02.857Z,20.12
2023-05-03T14:56:32.284Z,20.99
2023-05-03T14:58:59.713Z,20.43
2023-05-03T15:01:27.657Z,20.34
2023-05-03T15:03:55.183Z,20.51
2023-05-03T15:06:33.151Z,20.60
2023-05-03T15:09:00.849Z,20.10
2023-05-03T15:11:28.280Z,20.74
2023-05-03T15:13:55.941Z,20.34
2023-05-03T15:16:23.722Z,19.80
2023-05-03T15:18:51.342Z,19.83
2023-05-03T15:21:19.754Z,19.45
2023-05-03T15:23:49.590Z,19.37
2023-05-03T15:26:17.295Z,20.10
2023-05-03T15:28:44.716Z,19.62
2023-05-03T15:31:14.001Z,19.73
2023-05-03T15:33:44.968Z,19.43
2023-05-03T15:36:13.696Z,19.54
2023-05-03T15:38:41.270Z,19.56
2023-05-03T15:41:09.348Z,19.41
2023-05-03T15:43:37.515Z,19.91
2023-05-03T15:46:05.654Z,19.56
2023-05-03T15:48:33.237Z,19.63
2023-05-03T15:51:00.976Z,19.45
2023-05-03T15:53:28.465Z,19.46
2023-05-03T15:55:58.824Z,19.02
2023-05-03T15:58:30.383Z,19.48
2023-05-03T16:00:59.110Z,19.65
2023-05-03T16:03:29.794Z,19.29
2023-05-03T16:05:57.410Z,19.08
2023-05-03T16:08:25.269Z,18.95
2023-05-03T16:10:53.056Z,19.15
2023-05-03T16:13:20.573Z,19.64
2023-05-03T16:15:52.346Z,19.18
2023-05-03T16:18:20.220Z,19.95
2023-05-03T16:20:48.428Z,19.79
2023-05-03T16:23:16.065Z,19.77
2023-05-03T16:25:43.777Z,19.27
2023-05-03T16:28:11.194Z,19.29
2023-05-03T16:30:38.563Z,19.29
2023-05-03T16:33:06.640Z,19.33
2023-05-03T16:35:34.180Z,19.19
2023-05-03T16:38:01.661Z,19.65
2023-05-03T16:40:29.657Z,19.77
2023-05-03T16:42:58.168Z,20.01
2023-05-03T16:45:25.979Z,19.72
2023-05-03T16:47:53.820Z,19.68
2023-05-03T16:50:21.312Z,19.88
2023-05-03T16:52:48.837Z,19.88
2023-05-03T16:55:21.995Z,19.50
2023-05-03T16:57:49.427Z,19.69
2023-05-03T17:00:17.383Z,19.41
2023-05-03T17:02:44.986Z,19.97
2023-05-03T17:05:13.000Z,20.05
2023-05-03T17:07:43.473Z,18.76
2023-05-03T17:10:10.995Z,19.13
2023-05-03T17:12:38.639Z,19.10
2023-05-03T17:15:06.919Z,19.60
2023-05-03T17:17:34.308Z,19.52
2023-05-03T17:20:01.993Z,19.48
2023-05-03T17:22:29.872Z,19.05
2023-05-03T17:24:57.967Z,19.16
2023-05-03T17:27:25.590Z,19.19
2023-05-03T17:29:56.924Z,18.55
2023-05-03T17:32:24.430Z,19.00
2023-05-03T17:34:51.805Z,19.50
2023-05-03T17:37:19.536Z,19.18
2023-05-03T17:39:47.011Z,18.58
2023-05-03T17:42:14.380Z,18.76
2023-05-03T17:44:42.044Z,18.60
2023-05-03T17:47:11.099Z,18.88
2023-05-03T17:49:38.573Z,19.16
2023-05-03T17:52:06.557Z,19.06
2023-05-03T17:54:35.148Z,18.91
2023-05-03T17:57:03.421Z,18.58
2023-05-03T17:59:31.184Z,18.31
2023-05-03T18:01:58.612Z,18.56
2023-05-03T18:04:27.051Z,18.63
2023-05-03T18:06:54.759Z,18.49
2023-05-03T18:09:23.450Z,18.55
2023-05-03T18:11:54.502Z,17.95
2023-05-03T18:14:22.040Z,18.16
2023-05-03T18:16:49.431Z,18.11
2023-05-03T18:19:17.081Z,18.24
2023-05-03T18:21:44.473Z,18.27
2023-05-03T18:24:11.883Z,18.38
2023-05-03T18:26:39.645Z,17.58
2023-05-03T18:29:07.066Z,17.41
2023-05-03T18:31:34.637Z,17.71
2023-05-03T18:34:02.686Z,18.05
2023-05-03T18:36:30.301Z,17.22
2023-05-03T18:38:57.938Z,17.46
2023-05-03T18:41:25.674Z,17.67
2023-05-03T18:43:53.162Z,17.80
2023-05-03T18:46:20.663Z,18.09
2023-05-03T18:48:48.448Z,17.61
2023-05-03T18:51:16.594Z,17.81
2023-05-03T18:53:43.999Z,17.56
2023-05-03T18:56:11.968Z,17.91
2023-05-03T18:58:39.395Z,18.00
2023-05-03T19:01:07.139Z,18.11
2023-05-03T19:03:36.164Z,18.41
2023-05-03T19:06:07.345Z,18.32
2023-05-03T19:08:35.696Z,18.02
2023-05-03T19:11:09.086Z,18.37
2023-05-03T19:13:37.153Z,18.13
2023-05-03T19:16:05.084Z,18.37
2023-05-03T19:18:32.485Z,18.51
2023-05-03T19:21:01.359Z,18.53
2023-05-03T19:23:28.823Z,18.41
2023-05-03T19:25:56.670Z,18.56
2023-05-03T19:28:24.490Z,18.70
2023-05-03T19:30:52.129Z,18.61
2023-05-03T19:33:20.057Z,18.61
2023-05-03T19:35:48.040Z,18.53
2023-05-03T19:38:15.520Z,18.85
2023-05-03T19:40:57.809Z,18.71
2023-05-03T19:43:25.901Z,18.64
2023-05-03T19:45:53.421Z,18.64
2023-05-03T19:48:21.156Z,18.74
2023-05-03T19:50:49.038Z,18.83
2023-05-03T19:53:16.557Z,18.38
2023-05-03T19:55:54.905Z,18.89
2023-05-03T19:58:22.819Z,18.87
2023-05-03T20:00:50.475Z,19.01
2023-05-03T20:03:18.604Z,19.02
2023-05-03T20:05:47.137Z,19.01
2023-05-03T20:08:14.759Z,19.15
2023-05-03T20:10:44.700Z,19.08
2023-05-03T20:13:13.700Z,18.79
2023-05-03T20:15:41.566Z,19.18
2023-05-03T20:18:09.422Z,19.00
2023-05-03T20:20:37.053Z,19.12
2023-05-03T20:23:04.457Z,18.92
2023-05-03T20:25:32.139Z,18.98
2023-05-03T20:27:59.675Z,18.80
2023-05-03T20:30:29.159Z,18.93
2023-05-03T20:32:57.582Z,18.79
2023-05-03T20:35:25.319Z,18.77
2023-05-03T20:37:53.147Z,18.83
2023-05-03T20:40:20.768Z,18.76
2023-05-03T20:42:48.188Z,18.87
2023-05-03T20:45:15.825Z,18.89
2023-05-03T20:47:43.816Z,19.05
2023-05-03T20:50:11.841Z,18.92
2023-05-03T20:52:39.514Z,18.99
2023-05-03T20:55:07.443Z,19.03
2023-05-03T20:57:34.841Z,19.02
2023-05-03T21:00:04.348Z,19.04
2023-05-03T21:02:32.722Z,19.06
2023-05-03T21:05:00.290Z,19.03
2023-05-03T21:07:28.917Z,19.00
2023-05-03T21:09:56.617Z,19.01
2023-05-03T21:12:24.106Z,19.04
2023-05-03T21:14:51.480Z,19.11
2023-05-03T21:17:19.196Z,19.11
2023-05-03T21:19:46.685Z,19.08
2023-05-03T21:22:14.109Z,19.12
2023-05-03T21:24:41.998Z,19.10
2023-05-03T21:27:09.539Z,19.16
2023-05-03T21:29:36.996Z,19.16
2023-05-03T21:32:05.118Z,19.07
2023-05-03T21:34:32.672Z,19.07
2023-05-03T21:37:01.100Z,19.07
2023-05-03T21:39:28.852Z,19.05
2023-05-03T21:41:56.784Z,19.08
2023-05-03T21:44:24.244Z,18.88
2023-05-03T21:46:51.970Z,18.96
2023-05-03T21:49:19.418Z,18.99
2023-05-03T21:51:47.101Z,19.09
2023-05-03T21:54:15.985Z,19.08
2023-05-03T21:56:43.390Z,18.97
2023-05-03T21:59:10.870Z,18.99
2023-05-03T22:01:38.589Z,18.90
2023-05-03T22:04:06.551Z,18.93
2023-05-03T22:06:34.013Z,18.89
2023-05-03T22:09:01.445Z,19.00
2023-05-03T22:11:29.472Z,18.95
2023-05-03T22:14:07.587Z,18.90
2023-05-03T22:16:37.768Z,19.02
2023-05-03T22:19:05.530Z,19.05
2023-05-03T22:21:32.978Z,18.75
2023-05-03T22:24:00.664Z,18.75
2023-05-03T22:26:28.054Z,18.94
2023-05-03T22:28:55.607Z,18.98
2023-05-03T22:31:23.567Z,18.97
2023-05-03T22:33:50.980Z,18.99
2023-05-03T22:36:18.364Z,18.63
2023-05-03T22:38:46.239Z,18.81
2023-05-03T22:41:13.711Z,18.82
2023-05-03T22:43:41.066Z,18.58
2023-05-03T22:46:08.825Z,18.74
2023-05-03T22:48:36.254Z,18.86
2023-05-03T22:51:03.734Z,18.79
2023-05-03T22:53:31.437Z,18.75
2023-05-03T22:56:00.810Z,18.77
2023-05-03T22:58:28.715Z,18.67
2023-05-03T23:00:56.598Z,18.70
2023-05-03T23:03:24.297Z,18.59
2023-05-03T23:05:52.884Z,18.61
2023-05-03T23:08:21.227Z,18.56
2023-05-03T23:10:48.639Z,18.64
2023-05-03T23:13:16.658Z,18.42
2023-05-03T23:15:44.782Z,18.30
2023-05-03T23:18:12.599Z,18.37
2023-05-03T23:20:40.065Z,18.41
2023-05-03T23:23:07.754Z,18.48
2023-05-03T23:25:35.135Z,18.22
2023-05-03T23:28:02.635Z,18.35
2023-05-03T23:30:30.870Z,18.46
2023-05-03T23:32:58.774Z,18.39
2023-05-03T23:35:26.858Z,18.44
2023-05-03T23:37:54.542Z,18.54
2023-05-03T23:40:21.994Z,18.57
2023-05-03T23:42:49.762Z,18.29
2023-05-03T23:45:17.452Z,18.17
2023-05-03T23:47:44.986Z,18.39
2023-05-03T23:50:12.713Z,18.41
2023-05-03T23:52:41.873Z,18.45
2023-05-03T23:55:09.707Z,18.29
2023-05-03T23:57:37.155Z,18.34
